Time;durP1;ratioP1;P1;durP2;ratioP2;P2;SDS_P1;SDS_P2;PMS_P1;PMS_P2;Temp;Humidity;BMP_temperature;BMP_pressure;BME280_temperature;BME280_humidity;BME280_pressure;Samples;Min_cycle;Max_cycle;Signal;HPM_P1;HPM_P2
2022/09/09 00:00:33;;;;;;;0.00;0.00;;;15.20;99.90;;;;;;5035303;28;20174;-65
2022/09/09 00:03:19;;;;;;;0.00;0.00;;;15.30;99.90;;;;;;5047539;28;20588;-65
2022/09/09 00:06:08;;;;;;;0.00;0.00;;;15.30;99.90;;;;;;5027906;28;20189;-66
2022/09/09 00:09:15;;;;;;;0.00;0.00;;;15.30;99.90;;;;;;5035124;28;20185;-66
2022/09/09 00:12:15;;;;;;;0.00;0.00;;;15.30;99.90;;;;;;5042627;28;20203;-66
2022/09/09 00:15:07;;;;;;;0.00;0.00;;;15.30;99.90;;;;;;5042533;28;20180;-66
2022/09/09 00:17:36;;;;;;;0.00;0.00;;;15.40;99.90;;;;;;5041975;28;20181;-66
2022/09/09 00:20:35;;;;;;;0.00;0.00;;;15.40;99.90;;;;;;5039966;28;20170;-66
2022/09/09 00:23:20;;;;;;;0.00;0.00;;;15.40;99.90;;;;;;5032044;28;20217;-66
2022/09/09 00:25:45;;;;;;;0.00;0.00;;;15.40;99.90;;;;;;5037624;28;20265;-66
2022/09/09 00:28:18;;;;;;;0.00;0.00;;;15.40;99.90;;;;;;5049072;28;20700;-66
2022/09/09 00:30:48;;;;;;;0.00;0.00;;;15.50;99.90;;;;;;5039936;28;20275;-66
2022/09/09 00:33:18;;;;;;;0.00;0.00;;;15.60;99.90;;;;;;5048194;28;20173;-66
2022/09/09 00:35:56;;;;;;;0.00;0.00;;;15.60;99.90;;;;;;5033937;28;20182;-65
2022/09/09 00:38:39;;;;;;;0.00;0.00;;;15.60;99.90;;;;;;5031042;28;20190;-66
2022/09/09 00:41:14;;;;;;;0.00;0.00;;;15.60;99.90;;;;;;5049658;28;20268;-66
2022/09/09 00:43:41;;;;;;;0.00;0.00;;;15.60;99.90;;;;;;5035329;28;20546;-66
2022/09/09 00:46:41;;;;;;;0.00;0.00;;;15.60;99.90;;;;;;5038843;28;20178;-65
2022/09/09 00:49:20;;;;;;;0.00;0.00;;;15.60;99.90;;;;;;5049481;28;20189;-66
2022/09/09 00:51:50;;;;;;;0.00;0.00;;;15.60;99.90;;;;;;5045145;28;20223;-66
2022/09/09 00:54:25;;;;;;;0.03;0.03;;;15.60;99.90;;;;;;5043656;28;20648;-66
2022/09/09 00:57:04;;;;;;;0.00;0.00;;;15.70;99.90;;;;;;5036062;28;20190;-65
2022/09/09 00:59:52;;;;;;;0.00;0.00;;;15.70;99.90;;;;;;5040266;28;20176;-66
2022/09/09 01:02:28;;;;;;;0.00;0.00;;;15.70;99.90;;;;;;5042271;28;20294;-66
2022/09/09 01:04:54;;;;;;;0.10;0.10;;;15.70;99.90;;;;;;5048523;28;20522;-66
2022/09/09 01:07:20;;;;;;;0.00;0.00;;;15.60;99.90;;;;;;5045216;28;20182;-66
2022/09/09 01:09:56;;;;;;;0.00;0.00;;;15.70;99.90;;;;;;5037238;28;20202;-66
2022/09/09 01:12:46;;;;;;;0.00;0.00;;;15.70;99.90;;;;;;5044627;28;20247;-66
2022/09/09 01:15:18;;;;;;;0.00;0.00;;;15.70;99.90;;;;;;5044292;28;20197;-66
2022/09/09 01:17:53;;;;;;;0.00;0.00;;;15.80;99.90;;;;;;5040433;28;20177;-66
2022/09/09 01:20:37;;;;;;;0.00;0.00;;;15.80;99.90;;;;;;5038657;28;20185;-66
2022/09/09 01:23:34;;;;;;;0.00;0.00;;;15.80;99.90;;;;;;5048622;28;20259;-66
2022/09/09 01:26:15;;;;;;;0.00;0.00;;;15.70;99.90;;;;;;5044305;28;20687;-66
2022/09/09 01:28:54;;;;;;;0.35;0.35;;;15.70;99.90;;;;;;5034720;28;20224;-65
2022/09/09 01:31:29;;;;;;;0.00;0.00;;;15.70;99.90;;;;;;5034973;28;20182;-65
2022/09/09 01:33:55;;;;;;;0.00;0.00;;;15.70;99.90;;;;;;5018936;28;20202;-66
2022/09/09 01:36:47;;;;;;;0.00;0.00;;;15.70;99.90;;;;;;5035405;28;20198;-66
2022/09/09 01:39:13;;;;;;;0.00;0.00;;;15.80;99.90;;;;;;5039669;28;20185;-66
2022/09/09 01:41:39;;;;;;;0.00;0.00;;;15.80;99.90;;;;;;5014705;28;20229;-66
2022/09/09 01:44:05;;;;;;;0.00;0.00;;;15.80;99.90;;;;;;5051044;28;20221;-66
2022/09/09 01:46:31;;;;;;;0.00;0.00;;;15.80;99.90;;;;;;5049010;28;20530;-66
2022/09/09 01:48:58;;;;;;;0.05;0.05;;;15.80;99.90;;;;;;5047181;28;20257;-66
2022/09/09 01:51:24;;;;;;;0.00;0.00;;;16.00;99.90;;;;;;5044120;28;20544;-66
2022/09/09 01:53:50;;;;;;;0.10;0.10;;;16.20;99.90;;;;;;5037953;28;20178;-66
2022/09/09 01:56:41;;;;;;;0.00;0.00;;;16.40;99.90;;;;;;5043452;28;20182;-66
2022/09/09 01:59:27;;;;;;;0.03;0.03;;;16.60;99.90;;;;;;5045834;28;20716;-66
2022/09/09 02:02:05;;;;;;;0.00;0.00;;;16.80;99.90;;;;;;5013629;28;20273;-66
2022/09/09 02:04:43;;;;;;;0.00;0.00;;;17.20;99.90;;;;;;5050246;28;20531;-66
2022/09/09 02:07:25;;;;;;;0.00;0.00;;;17.40;99.90;;;;;;5043592;28;20198;-66
2022/09/09 02:10:01;;;;;;;0.00;0.00;;;17.60;99.90;;;;;;5034928;28;20774;-65
2022/09/09 02:12:29;;;;;;;0.00;0.00;;;17.80;99.90;;;;;;5053472;28;20546;-67
2022/09/09 02:15:07;;;;;;;0.00;0.00;;;17.80;99.90;;;;;;5038802;28;20209;-66
2022/09/09 02:17:38;;;;;;;0.00;0.00;;;17.90;99.90;;;;;;5037930;28;20624;-66
2022/09/09 02:20:14;;;;;;;0.00;0.00;;;18.00;99.90;;;;;;5053285;28;20193;-67
2022/09/09 02:22:43;;;;;;;0.00;0.00;;;18.10;99.90;;;;;;5030181;28;20205;-66
2022/09/09 02:25:12;;;;;;;0.00;0.00;;;18.20;99.90;;;;;;5033674;28;20197;-66
2022/09/09 02:27:37;;;;;;;0.00;0.00;;;18.10;99.90;;;;;;5033749;28;20178;-66
2022/09/09 02:30:04;;;;;;;0.00;0.00;;;18.10;99.90;;;;;;5049385;28;20619;-66
2022/09/09 02:32:34;;;;;;;0.00;0.00;;;17.90;99.90;;;;;;5045038;28;20664;-66
2022/09/09 02:35:08;;;;;;;0.00;0.00;;;17.80;99.90;;;;;;5039481;28;20182;-66
2022/09/09 02:37:37;;;;;;;0.00;0.00;;;17.80;99.90;;;;;;5034032;28;20260;-66
2022/09/09 02:40:05;;;;;;;0.00;0.00;;;17.80;99.90;;;;;;5037843;28;20189;-67
2022/09/09 02:42:31;;;;;;;0.00;0.00;;;18.00;99.90;;;;;;5033590;28;20267;-65
2022/09/09 02:44:56;;;;;;;0.00;0.00;;;18.10;99.90;;;;;;5034663;28;20269;-66
2022/09/09 02:47:36;;;;;;;0.00;0.00;;;18.20;99.90;;;;;;5046424;28;20189;-66
2022/09/09 02:50:05;;;;;;;0.00;0.00;;;18.20;99.90;;;;;;5038315;28;20181;-66
2022/09/09 02:52:58;;;;;;;0.00;0.00;;;18.20;99.90;;;;;;5041753;28;20564;-66
2022/09/09 02:55:37;;;;;;;0.00;0.00;;;18.10;99.90;;;;;;5026091;28;20196;-66
2022/09/09 02:58:06;;;;;;;0.00;0.00;;;18.00;99.90;;;;;;5045463;28;20181;-66
2022/09/09 03:00:32;;;;;;;0.00;0.00;;;18.00;99.90;;;;;;5047207;28;20178;-66
2022/09/09 03:02:59;;;;;;;0.00;0.00;;;17.80;99.90;;;;;;5035883;28;20228;-66
2022/09/09 03:05:26;;;;;;;0.00;0.00;;;17.70;99.90;;;;;;5035853;28;20200;-66
2022/09/09 03:07:51;;;;;;;0.00;0.00;;;17.70;99.90;;;;;;5045051;28;20186;-66
2022/09/09 03:10:17;;;;;;;0.00;0.00;;;17.60;99.90;;;;;;5052272;28;20180;-66
2022/09/09 03:12:43;;;;;;;0.00;0.00;;;17.50;99.90;;;;;;5048409;28;20696;-66
2022/09/09 03:15:09;;;;;;;0.00;0.00;;;17.50;99.90;;;;;;5037949;28;20221;-66
2022/09/09 03:17:35;;;;;;;0.00;0.00;;;17.40;99.90;;;;;;5037320;28;20178;-66
2022/09/09 03:20:02;;;;;;;0.00;0.00;;;17.40;99.90;;;;;;5044100;28;20321;-65
2022/09/09 03:22:28;;;;;;;0.00;0.00;;;17.40;99.90;;;;;;5037556;28;20217;-65
2022/09/09 03:24:53;;;;;;;0.00;0.00;;;17.40;99.90;;;;;;5045160;28;20535;-65
2022/09/09 03:27:19;;;;;;;0.00;0.00;;;17.40;99.90;;;;;;5037813;28;20185;-65
2022/09/09 03:29:46;;;;;;;0.00;0.00;;;17.40;99.90;;;;;;5033591;28;20232;-67
2022/09/09 03:32:12;;;;;;;0.00;0.00;;;17.40;99.90;;;;;;5044158;28;20648;-65
2022/09/09 03:34:40;;;;;;;0.00;0.00;;;17.30;99.90;;;;;;5042306;28;20543;-66
2022/09/09 03:37:06;;;;;;;0.00;0.00;;;17.30;99.90;;;;;;5048839;28;20184;-63
2022/09/09 03:39:31;;;;;;;0.00;0.00;;;17.20;99.90;;;;;;5047673;28;20189;-63
2022/09/09 03:41:57;;;;;;;0.00;0.00;;;17.00;99.90;;;;;;5042234;28;20527;-63
2022/09/09 03:44:22;;;;;;;0.00;0.00;;;16.90;99.90;;;;;;5041667;28;20214;-63
2022/09/09 03:46:48;;;;;;;0.00;0.00;;;16.80;99.90;;;;;;5033950;28;20205;-64
2022/09/09 03:49:13;;;;;;;0.00;0.00;;;16.70;99.90;;;;;;5035467;28;20186;-63
2022/09/09 03:51:40;;;;;;;0.00;0.00;;;16.50;99.90;;;;;;5038743;28;20263;-64
2022/09/09 03:54:08;;;;;;;0.00;0.00;;;16.40;99.90;;;;;;5039016;28;20194;-64
2022/09/09 03:56:34;;;;;;;0.00;0.00;;;16.30;99.90;;;;;;5047196;28;20205;-63
2022/09/09 03:59:00;;;;;;;0.00;0.00;;;16.20;99.90;;;;;;5035041;28;20174;-63
2022/09/09 04:01:25;;;;;;;0.00;0.00;;;16.10;99.90;;;;;;5033633;28;20228;-63
2022/09/09 04:03:52;;;;;;;0.00;0.00;;;15.90;99.90;;;;;;5033177;28;20565;-63
2022/09/09 04:06:19;;;;;;;0.00;0.00;;;15.90;99.90;;;;;;5035824;28;20174;-64
2022/09/09 04:08:48;;;;;;;0.00;0.00;;;15.90;99.90;;;;;;5042369;28;21319;-63
2022/09/09 04:11:15;;;;;;;0.00;0.00;;;15.80;99.90;;;;;;5031413;28;20182;-64
2022/09/09 04:13:41;;;;;;;0.00;0.00;;;15.80;99.90;;;;;;5032307;28;20213;-64
2022/09/09 04:16:09;;;;;;;0.00;0.00;;;15.80;99.90;;;;;;5041145;28;20642;-64
2022/09/09 04:18:35;;;;;;;0.00;0.00;;;15.70;99.90;;;;;;5050810;28;20586;-62
2022/09/09 04:21:01;;;;;;;0.00;0.00;;;15.70;99.90;;;;;;5049865;28;20173;-59
2022/09/09 04:23:29;;;;;;;0.00;0.00;;;15.60;99.90;;;;;;5042393;28;20217;-60
2022/09/09 04:25:56;;;;;;;0.00;0.00;;;15.60;99.90;;;;;;5032278;28;20232;-59
2022/09/09 04:28:24;;;;;;;0.00;0.00;;;15.50;99.90;;;;;;5032380;28;20178;-61
2022/09/09 04:30:50;;;;;;;0.00;0.00;;;15.50;99.90;;;;;;5043136;28;20181;-64
2022/09/09 04:33:17;;;;;;;0.00;0.00;;;15.50;99.90;;;;;;5041010;28;20220;-61
2022/09/09 04:35:52;;;;;;;0.00;0.00;;;15.50;99.90;;;;;;5037581;28;20177;-61
2022/09/09 04:38:18;;;;;;;0.00;0.00;;;15.40;99.90;;;;;;5035837;28;20193;-61
2022/09/09 04:40:46;;;;;;;0.00;0.00;;;15.50;99.90;;;;;;5039077;28;20177;-61
2022/09/09 04:43:12;;;;;;;0.00;0.00;;;15.50;99.90;;;;;;5048921;28;20567;-59
2022/09/09 04:45:39;;;;;;;0.00;0.00;;;15.50;99.90;;;;;;5035508;28;20186;-62
2022/09/09 04:48:04;;;;;;;0.00;0.00;;;15.50;99.90;;;;;;5041685;28;20570;-65
2022/09/09 04:50:30;;;;;;;0.00;0.00;;;15.50;99.90;;;;;;5036236;28;20325;-63
2022/09/09 04:52:56;;;;;;;0.00;0.00;;;15.50;99.90;;;;;;5031185;28;20195;-60
2022/09/09 04:55:21;;;;;;;0.00;0.00;;;15.50;99.90;;;;;;5036290;28;20190;-62
2022/09/09 04:57:47;;;;;;;0.00;0.00;;;15.50;99.90;;;;;;5032158;28;20235;-61
2022/09/09 05:00:13;;;;;;;0.00;0.00;;;15.50;99.90;;;;;;5043274;28;20265;-61
2022/09/09 05:02:39;;;;;;;0.00;0.00;;;15.50;99.90;;;;;;5030917;28;20241;-61
2022/09/09 05:05:06;;;;;;;0.00;0.00;;;15.50;99.90;;;;;;5048009;28;20174;-61
2022/09/09 05:07:31;;;;;;;0.00;0.00;;;15.50;99.90;;;;;;5049015;28;20546;-62
2022/09/09 05:09:57;;;;;;;0.00;0.00;;;15.50;99.90;;;;;;5051191;28;20169;-61
2022/09/09 05:12:25;;;;;;;0.00;0.00;;;15.50;99.90;;;;;;5042302;28;20670;-61
2022/09/09 05:14:51;;;;;;;0.00;0.00;;;15.50;99.90;;;;;;5032044;28;20186;-61
2022/09/09 05:17:17;;;;;;;0.00;0.00;;;15.40;99.90;;;;;;5031084;28;20544;-63
2022/09/09 05:19:43;;;;;;;0.00;0.00;;;15.50;99.90;;;;;;5031332;28;20185;-61
2022/09/09 05:22:10;;;;;;;0.00;0.00;;;15.50;99.90;;;;;;5031142;28;20189;-62
2022/09/09 05:24:36;;;;;;;0.00;0.00;;;15.50;99.90;;;;;;5029875;28;20184;-62
2022/09/09 05:27:02;;;;;;;0.00;0.00;;;15.50;99.90;;;;;;5032862;28;20174;-62
2022/09/09 05:29:28;;;;;;;0.00;0.00;;;15.50;99.90;;;;;;5034239;28;20179;-62
2022/09/09 05:31:54;;;;;;;0.00;0.00;;;15.60;99.90;;;;;;5034467;28;20174;-62
2022/09/09 05:34:20;;;;;;;0.00;0.00;;;15.70;99.90;;;;;;5034296;28;20186;-62
2022/09/09 05:36:46;;;;;;;0.00;0.00;;;15.70;99.90;;;;;;5034354;28;20638;-62
2022/09/09 05:39:12;;;;;;;0.00;0.00;;;15.80;99.90;;;;;;5034432;28;20178;-62
2022/09/09 05:41:37;;;;;;;0.00;0.00;;;15.90;99.90;;;;;;5034211;28;20912;-62
2022/09/09 05:44:03;;;;;;;0.00;0.00;;;15.90;99.90;;;;;;5034297;28;20237;-62
2022/09/09 05:46:29;;;;;;;0.00;0.00;;;16.00;99.90;;;;;;5034387;28;20181;-62
2022/09/09 05:48:55;;;;;;;0.00;0.00;;;16.10;99.90;;;;;;5034254;28;20186;-62
2022/09/09 05:51:24;;;;;;;0.00;0.00;;;16.20;99.90;;;;;;5034326;28;20558;-62
2022/09/09 05:53:55;;;;;;;0.00;0.00;;;16.30;99.90;;;;;;5020803;28;20249;-62
2022/09/09 05:56:23;;;;;;;0.00;0.00;;;16.40;99.90;;;;;;5014465;28;20175;-62
2022/09/09 05:58:49;;;;;;;0.00;0.00;;;16.40;99.90;;;;;;5014275;28;20183;-61
2022/09/09 06:01:27;;;;;;;0.00;0.00;;;16.50;99.90;;;;;;5045294;28;20308;-62
2022/09/09 06:03:53;;;;;;;0.00;0.00;;;16.60;99.90;;;;;;5052511;28;20209;-62
2022/09/09 06:06:36;;;;;;;0.00;0.00;;;16.60;99.90;;;;;;5053821;28;20688;-62
2022/09/09 06:09:02;;;;;;;0.00;0.00;;;16.60;99.90;;;;;;5053816;28;20201;-62
2022/09/09 06:11:33;;;;;;;0.00;0.00;;;16.60;99.90;;;;;;5053661;28;20161;-62
2022/09/09 06:13:59;;;;;;;0.00;0.00;;;16.70;99.90;;;;;;5053819;28;20181;-62
2022/09/09 06:16:27;;;;;;;0.00;0.00;;;16.80;99.90;;;;;;5053769;28;20173;-62
2022/09/09 06:18:56;;;;;;;0.00;0.00;;;16.90;99.90;;;;;;5053460;28;20170;-62
2022/09/09 06:21:33;;;;;;;0.00;0.00;;;16.90;99.90;;;;;;5053757;28;20181;-62
2022/09/09 06:23:59;;;;;;;0.00;0.00;;;16.90;99.90;;;;;;5053573;28;20416;-62
2022/09/09 06:26:28;;;;;;;0.00;0.00;;;16.90;99.90;;;;;;5048375;28;20181;-61
2022/09/09 06:28:55;;;;;;;0.32;0.32;;;17.10;99.90;;;;;;5033610;28;20231;-61
2022/09/09 06:31:23;;;;;;;0.00;0.00;;;17.70;99.90;;;;;;5033506;28;20586;-62
2022/09/09 06:33:49;;;;;;;0.00;0.00;;;18.00;99.90;;;;;;5033469;28;20626;-62
2022/09/09 06:36:18;;;;;;;0.10;0.10;;;18.10;99.90;;;;;;5033401;28;20200;-61
2022/09/09 06:38:44;;;;;;;0.00;0.00;;;18.10;99.90;;;;;;5033256;28;20189;-61
2022/09/09 06:41:11;;;;;;;0.00;0.00;;;18.60;99.90;;;;;;5033398;28;20186;-62
2022/09/09 06:43:37;;;;;;;0.00;0.00;;;19.40;99.90;;;;;;5033136;28;20575;-62
2022/09/09 06:46:05;;;;;;;0.00;0.00;;;20.50;99.90;;;;;;5033331;28;20174;-62
2022/09/09 06:48:31;;;;;;;0.00;0.00;;;21.00;99.50;;;;;;5033276;28;20536;-62
2022/09/09 06:51:11;;;;;;;0.00;0.00;;;20.80;98.90;;;;;;5033244;28;20186;-61
2022/09/09 06:53:38;;;;;;;0.00;0.00;;;20.40;99.30;;;;;;5021482;28;20330;-61
2022/09/09 06:56:25;;;;;;;0.00;0.00;;;20.00;99.90;;;;;;5013488;28;20171;-61
2022/09/09 06:58:52;;;;;;;0.00;0.00;;;19.70;99.90;;;;;;5013238;28;20202;-61
2022/09/09 07:01:19;;;;;;;0.00;0.00;;;19.40;99.90;;;;;;5045128;28;20315;-62
2022/09/09 07:03:48;;;;;;;0.00;0.00;;;19.30;99.90;;;;;;5052817;28;20220;-61
2022/09/09 07:06:17;;;;;;;0.00;0.00;;;19.20;99.90;;;;;;5052748;28;20260;-61
2022/09/09 07:08:43;;;;;;;0.00;0.00;;;19.20;99.90;;;;;;5052994;28;20178;-61
2022/09/09 07:11:09;;;;;;;0.00;0.00;;;19.10;99.90;;;;;;5052811;28;20169;-61
2022/09/09 07:13:35;;;;;;;0.00;0.00;;;19.00;99.90;;;;;;5052499;28;20181;-61
2022/09/09 07:16:15;;;;;;;0.00;0.00;;;18.90;99.90;;;;;;5052633;28;20260;-61
2022/09/09 07:18:41;;;;;;;0.00;0.00;;;18.90;99.90;;;;;;5052389;28;20514;-62
2022/09/09 07:21:08;;;;;;;0.00;0.00;;;19.30;99.90;;;;;;5052589;28;20577;-61
2022/09/09 07:23:35;;;;;;;0.00;0.00;;;19.30;99.90;;;;;;5052435;28;20549;-62
2022/09/09 07:26:02;;;;;;;0.00;0.00;;;19.20;99.90;;;;;;5050670;28;20511;-61
2022/09/09 07:28:30;;;;;;;0.00;0.00;;;19.10;99.90;;;;;;5032474;28;20272;-61
2022/09/09 07:31:03;;;;;;;0.00;0.00;;;19.10;99.90;;;;;;5032504;28;20197;-61
2022/09/09 07:33:33;;;;;;;0.00;0.00;;;19.30;99.90;;;;;;5032405;28;20240;-62
2022/09/09 07:36:21;;;;;;;0.00;0.00;;;20.00;99.90;;;;;;5032442;28;20262;-62
2022/09/09 07:38:51;;;;;;;0.00;0.00;;;21.50;99.90;;;;;;5032342;28;20182;-62
2022/09/09 07:41:20;;;;;;;0.00;0.00;;;22.70;99.00;;;;;;5031135;28;20178;-62
2022/09/09 07:43:47;;;;;;;0.00;0.00;;;23.00;97.40;;;;;;5032223;28;20221;-62
2022/09/09 07:46:15;;;;;;;0.00;0.00;;;23.10;96.40;;;;;;5032218;28;20181;-62
2022/09/09 07:48:51;;;;;;;0.00;0.00;;;23.50;96.10;;;;;;5031789;28;20253;-62
2022/09/09 07:51:19;;;;;;;0.00;0.00;;;23.90;95.00;;;;;;5032252;28;20176;-62
2022/09/09 07:53:46;;;;;;;0.00;0.00;;;24.30;94.50;;;;;;5019378;28;20191;-63
2022/09/09 07:56:16;;;;;;;0.00;0.00;;;24.50;92.50;;;;;;5012237;28;20261;-62
2022/09/09 07:58:44;;;;;;;0.00;0.00;;;24.60;91.60;;;;;;5012311;28;20262;-62
2022/09/09 08:01:14;;;;;;;0.00;0.00;;;24.80;91.50;;;;;;5041968;28;20185;-62
2022/09/09 08:03:40;;;;;;;0.00;0.00;;;24.90;91.20;;;;;;5051890;28;20687;-62
2022/09/09 08:06:08;;;;;;;0.00;0.00;;;24.50;90.30;;;;;;5051937;28;20259;-62
2022/09/09 08:08:34;;;;;;;0.00;0.00;;;23.90;90.70;;;;;;5051599;28;20262;-62
2022/09/09 08:11:15;;;;;;;0.00;0.00;;;23.40;91.70;;;;;;5051843;28;20177;-62
2022/09/09 08:13:42;;;;;;;0.00;0.00;;;23.00;92.90;;;;;;5051829;28;20170;-62
2022/09/09 08:16:09;;;;;;;0.00;0.00;;;23.10;93.40;;;;;;5051896;28;20187;-62
2022/09/09 08:18:35;;;;;;;0.00;0.00;;;23.40;92.90;;;;;;5051440;28;20181;-62
2022/09/09 08:21:12;;;;;;;0.00;0.00;;;23.70;92.40;;;;;;5051648;28;20640;-62
2022/09/09 08:23:42;;;;;;;0.00;0.00;;;24.10;92.30;;;;;;5051575;28;20689;-62
2022/09/09 08:26:14;;;;;;;0.00;0.00;;;24.20;92.10;;;;;;5049005;28;20173;-63
2022/09/09 08:28:41;;;;;;;0.00;0.00;;;24.20;91.80;;;;;;5031683;28;20198;-63
2022/09/09 08:31:21;;;;;;;0.00;0.00;;;24.50;91.60;;;;;;5031703;28;20182;-63
2022/09/09 08:33:47;;;;;;;0.00;0.00;;;24.80;91.50;;;;;;5031636;28;20178;-63
2022/09/09 08:36:25;;;;;;;0.00;0.00;;;25.10;90.90;;;;;;5031569;28;20173;-63
2022/09/09 08:38:54;;;;;;;0.00;0.00;;;24.80;87.90;;;;;;5031813;28;20580;-63
2022/09/09 08:41:33;;;;;;;0.00;0.00;;;25.00;89.30;;;;;;5031748;28;20178;-62
2022/09/09 08:44:21;;;;;;;0.00;0.00;;;25.70;90.00;;;;;;5031540;28;20217;-63
2022/09/09 08:47:10;;;;;;;0.00;0.00;;;26.20;84.30;;;;;;5031719;28;20178;-63
2022/09/09 08:50:04;;;;;;;0.00;0.00;;;25.90;82.70;;;;;;5030380;28;20175;-62
2022/09/09 08:52:35;;;;;;;0.00;0.00;;;25.60;83.10;;;;;;5029015;28;20645;-62
2022/09/09 08:55:12;;;;;;;0.00;0.00;;;25.70;82.30;;;;;;5011959;28;20551;-63
2022/09/09 08:57:39;;;;;;;0.00;0.00;;;25.60;81.20;;;;;;5011737;28;20178;-62
2022/09/09 09:00:05;;;;;;;0.00;0.00;;;25.70;82.60;;;;;;5023775;28;20178;-62
2022/09/09 09:02:57;;;;;;;0.00;0.00;;;26.30;82.60;;;;;;5053781;28;20221;-63
2022/09/09 09:05:48;;;;;;;0.00;0.00;;;26.80;78.80;;;;;;5055160;28;20194;-62
2022/09/09 09:08:51;;;;;;;0.00;0.00;;;26.30;77.60;;;;;;5044357;28;20184;-62
2022/09/09 09:11:17;;;;;;;0.00;0.00;;;26.40;77.50;;;;;;5044925;28;20284;-63
2022/09/09 09:13:54;;;;;;;0.00;0.00;;;26.40;74.90;;;;;;5054840;28;20281;-63
2022/09/09 09:16:32;;;;;;;0.00;0.00;;;25.60;78.90;;;;;;5055073;28;20205;-62
2022/09/09 09:18:58;;;;;;;0.00;0.00;;;24.00;77.10;;;;;;5054899;28;20696;-61
2022/09/09 09:21:43;;;;;;;0.00;0.00;;;23.20;84.80;;;;;;5054855;28;20213;-62
2022/09/09 09:24:23;;;;;;;0.00;0.00;;;22.40;87.00;;;;;;5054751;28;20277;-62
2022/09/09 09:26:49;;;;;;;0.00;0.00;;;21.90;90.80;;;;;;5046367;28;20197;-62
2022/09/09 09:29:18;;;;;;;0.00;0.00;;;21.70;92.10;;;;;;5034734;28;20189;-62
2022/09/09 09:31:48;;;;;;;0.00;0.00;;;21.80;93.40;;;;;;5034604;28;20235;-63
2022/09/09 09:34:13;;;;;;;0.00;0.00;;;22.10;92.70;;;;;;5034520;28;20538;-62
2022/09/09 09:36:44;;;;;;;0.00;0.00;;;22.30;92.80;;;;;;5034608;28;20190;-62
2022/09/09 09:39:10;;;;;;;0.00;0.00;;;22.40;92.80;;;;;;5034761;28;20186;-63
2022/09/09 09:41:39;;;;;;;0.00;0.00;;;22.80;92.60;;;;;;5034325;28;20181;-62
2022/09/09 09:44:20;;;;;;;0.00;0.00;;;23.00;92.90;;;;;;5034492;28;20217;-62
2022/09/09 09:46:45;;;;;;;0.00;0.00;;;23.00;92.70;;;;;;5034522;28;20193;-63
2022/09/09 09:49:11;;;;;;;0.00;0.00;;;22.70;92.60;;;;;;5034468;28;20174;-62
2022/09/09 09:51:37;;;;;;;0.00;0.00;;;22.60;93.40;;;;;;5034267;28;20186;-62
2022/09/09 09:54:09;;;;;;;0.00;0.00;;;22.80;93.10;;;;;;5019231;28;20183;-63
2022/09/09 09:56:35;;;;;;;0.00;0.00;;;23.00;92.40;;;;;;5014390;28;20167;-62
2022/09/09 09:59:01;;;;;;;0.00;0.00;;;23.20;91.70;;;;;;5014388;28;20627;-62
2022/09/09 10:01:33;;;;;;;0.00;0.00;;;23.50;92.00;;;;;;5048579;28;20279;-62
2022/09/09 10:04:13;;;;;;;0.00;0.00;;;23.80;91.10;;;;;;5054089;28;20300;-62
2022/09/09 10:06:39;;;;;;;0.00;0.00;;;23.90;91.30;;;;;;5053993;28;20238;-62
2022/09/09 10:09:28;;;;;;;0.00;0.00;;;24.00;90.10;;;;;;5054018;28;20264;-62
2022/09/09 10:12:12;;;;;;;0.00;0.00;;;24.00;90.40;;;;;;5053404;28;20511;-62
2022/09/09 10:14:43;;;;;;;0.00;0.00;;;24.20;90.00;;;;;;5053863;28;20181;-62
2022/09/09 10:17:17;;;;;;;0.00;0.00;;;24.60;90.30;;;;;;5053835;28;20174;-62
2022/09/09 10:19:59;;;;;;;0.00;0.00;;;25.00;89.60;;;;;;5053785;28;20182;-62
2022/09/09 10:22:34;;;;;;;0.00;0.00;;;25.30;85.60;;;;;;5053603;28;20201;-62
2022/09/09 10:25:18;;;;;;;0.00;0.00;;;25.30;83.80;;;;;;5053627;28;20261;-62
2022/09/09 10:28:10;;;;;;;0.00;0.00;;;25.10;82.90;;;;;;5037580;28;20209;-62
2022/09/09 10:31:17;;;;;;;0.00;0.00;;;25.00;82.70;;;;;;5033646;28;20237;-62
2022/09/09 10:33:58;;;;;;;0.00;0.00;;;25.00;83.30;;;;;;5033604;28;20197;-62
2022/09/09 10:36:25;;;;;;;0.00;0.00;;;24.90;80.10;;;;;;5033602;28;20296;-62
2022/09/09 10:39:33;;;;;;;0.00;0.00;;;24.80;80.30;;;;;;5033353;28;20201;-62
2022/09/09 10:42:16;;;;;;;0.00;0.00;;;24.80;81.90;;;;;;5033352;28;20181;-62
2022/09/09 10:45:07;;;;;;;0.00;0.00;;;25.00;78.70;;;;;;5033195;28;20267;-62
2022/09/09 10:47:56;;;;;;;0.25;0.25;;;25.10;79.40;;;;;;5032016;28;20534;-62
2022/09/09 10:50:50;;;;;;;0.00;0.00;;;24.70;78.60;;;;;;5033355;28;20179;-62
2022/09/09 10:53:38;;;;;;;0.00;0.00;;;24.20;80.00;;;;;;5024583;28;20525;-62
2022/09/09 10:56:10;;;;;;;0.00;0.00;;;24.40;82.60;;;;;;5013460;28;20757;-62
2022/09/09 10:58:55;;;;;;;0.00;0.00;;;24.70;79.40;;;;;;5013299;28;20186;-62
2022/09/09 11:01:29;;;;;;;0.00;0.00;;;24.80;79.00;;;;;;5046110;28;20225;-62
2022/09/09 11:04:00;;;;;;;0.00;0.00;;;25.10;78.20;;;;;;5052773;28;20217;-62
2022/09/09 11:06:42;;;;;;;0.00;0.00;;;24.90;77.40;;;;;;5052858;28;20180;-62
2022/09/09 11:09:16;;;;;;;0.00;0.00;;;24.80;77.00;;;;;;5052858;28;20173;-63
2022/09/09 11:11:55;;;;;;;0.00;0.00;;;24.60;77.10;;;;;;5052786;28;20173;-62
2022/09/09 11:14:26;;;;;;;0.00;0.00;;;24.30;77.40;;;;;;5052755;28;20185;-63
2022/09/09 11:17:01;;;;;;;0.00;0.00;;;24.00;78.00;;;;;;5052647;28;20177;-62
2022/09/09 11:19:37;;;;;;;0.32;0.32;;;23.90;79.70;;;;;;5052606;28;20177;-62
2022/09/09 11:22:16;;;;;;;0.90;0.90;;;23.90;80.90;;;;;;5052654;28;20185;-62
2022/09/09 11:24:46;;;;;;;0.00;0.00;;;24.00;80.60;;;;;;5051608;28;20208;-62
2022/09/09 11:27:17;;;;;;;3.72;2.55;;;23.80;80.80;;;;;;5040681;28;20571;-62
2022/09/09 11:29:52;;;;;;;0.75;0.47;;;23.60;81.00;;;;;;5032479;28;20178;-63
2022/09/09 11:32:43;;;;;;;0.00;0.00;;;23.50;81.00;;;;;;5032501;28;20166;-62
2022/09/09 11:35:33;;;;;;;0.00;0.00;;;23.60;80.60;;;;;;5032533;28;20522;-62
2022/09/09 11:38:09;;;;;;;0.00;0.00;;;23.70;79.60;;;;;;5032497;28;20190;-62
2022/09/09 11:40:35;;;;;;;0.00;0.00;;;23.90;78.90;;;;;;5032217;28;20182;-63
2022/09/09 11:43:17;;;;;;;0.00;0.00;;;23.70;76.60;;;;;;5030928;28;20221;-63
2022/09/09 11:45:52;;;;;;;0.00;0.00;;;23.30;77.10;;;;;;5032286;28;20685;-62
2022/09/09 11:48:38;;;;;;;0.00;0.00;;;23.00;77.30;;;;;;5032310;28;20185;-62
2022/09/09 11:51:10;;;;;;;0.00;0.00;;;22.80;78.30;;;;;;5030987;28;20202;-62
2022/09/09 11:54:10;;;;;;;0.00;0.00;;;22.70;79.70;;;;;;5020626;28;20178;-62
2022/09/09 11:56:45;;;;;;;0.55;0.38;;;22.70;81.30;;;;;;5011673;28;20553;-63
2022/09/09 11:59:29;;;;;;;0.00;0.00;;;22.70;80.70;;;;;;5012216;28;20198;-62
2022/09/09 12:02:14;;;;;;;0.00;0.00;;;22.60;81.40;;;;;;5012132;28;20238;-63
2022/09/09 12:04:47;;;;;;;0.00;0.00;;;22.60;82.70;;;;;;5012236;28;20218;-62
2022/09/09 12:07:42;;;;;;;0.00;0.00;;;22.50;79.80;;;;;;5012158;28;20221;-62
2022/09/09 12:10:08;;;;;;;0.00;0.00;;;22.40;78.80;;;;;;5012277;28;20203;-63
2022/09/09 12:12:38;;;;;;;0.32;0.32;;;22.60;79.50;;;;;;5012053;28;20331;-62
2022/09/09 12:15:07;;;;;;;0.60;0.60;;;22.90;79.80;;;;;;5012203;28;20171;-62
2022/09/09 12:17:44;;;;;;;0.00;0.00;;;23.30;78.30;;;;;;5011907;28;20182;-63
2022/09/09 12:20:20;;;;;;;0.38;0.38;;;23.60;77.50;;;;;;5012208;28;20652;-63
2022/09/09 12:23:09;;;;;;;0.00;0.00;;;23.90;76.90;;;;;;5012035;28;20206;-63
2022/09/09 12:25:49;;;;;;;0.00;0.00;;;24.00;73.30;;;;;;5011965;28;20179;-63
2022/09/09 12:28:22;;;;;;;0.00;0.00;;;24.20;73.30;;;;;;5011948;28;20265;-63
2022/09/09 12:31:25;;;;;;;0.00;0.00;;;24.40;73.60;;;;;;5011858;28;20740;-63
2022/09/09 12:33:52;;;;;;;0.00;0.00;;;24.50;72.10;;;;;;5011854;28;20978;-63
2022/09/09 12:36:24;;;;;;;0.00;0.00;;;24.60;72.10;;;;;;5014491;28;20626;-63
2022/09/09 12:38:51;;;;;;;0.00;0.00;;;24.80;72.40;;;;;;5015851;28;20171;-63
2022/09/09 12:41:25;;;;;;;0.00;0.00;;;24.80;71.80;;;;;;5015881;28;20194;-63
2022/09/09 12:43:51;;;;;;;0.00;0.00;;;24.80;71.20;;;;;;5015763;28;20217;-63
2022/09/09 12:46:38;;;;;;;0.00;0.00;;;24.80;71.80;;;;;;5015816;28;20233;-63
2022/09/09 12:49:04;;;;;;;0.00;0.00;;;24.90;71.50;;;;;;5015671;28;20633;-63
2022/09/09 12:51:32;;;;;;;0.00;0.00;;;25.00;72.20;;;;;;5036361;28;20189;-65
2022/09/09 12:53:59;;;;;;;0.00;0.00;;;25.10;70.90;;;;;;5052093;28;20189;-63
2022/09/09 12:56:32;;;;;;;0.00;0.00;;;25.20;71.30;;;;;;5055350;28;20173;-63
2022/09/09 12:58:59;;;;;;;0.00;0.00;;;25.20;70.80;;;;;;5044152;28;20186;-63
2022/09/09 13:01:28;;;;;;;0.00;0.00;;;25.10;71.70;;;;;;5052044;28;20221;-64
2022/09/09 13:03:54;;;;;;;0.30;0.30;;;25.10;71.00;;;;;;5045147;28;20214;-63
2022/09/09 13:06:22;;;;;;;0.63;0.63;;;24.70;70.40;;;;;;5035078;28;20544;-63
2022/09/09 13:08:49;;;;;;;0.45;0.45;;;24.60;72.60;;;;;;5039050;28;20185;-63
2022/09/09 13:11:39;;;;;;;0.00;0.00;;;24.70;72.40;;;;;;5042990;28;20481;-63
2022/09/09 13:14:06;;;;;;;0.00;0.00;;;24.80;71.70;;;;;;5044320;28;20220;-63
2022/09/09 13:16:35;;;;;;;0.00;0.00;;;24.50;70.70;;;;;;5048457;28;20182;-63